createdAt,value
2022-08-04T00:00:20.497Z,2.30
2022-08-04T00:03:13.139Z,2.00
2022-08-04T00:06:16.920Z,2.08
2022-08-04T00:08:53.049Z,2.30
2022-08-04T00:11:29.939Z,2.15
2022-08-04T00:14:14.331Z,2.30
2022-08-04T00:16:43.411Z,1.48
2022-08-04T00:19:24.157Z,1.80
2022-08-04T00:22:04.647Z,1.95
2022-08-04T00:24:32.227Z,1.80
2022-08-04T00:27:00.168Z,2.10
2022-08-04T00:29:28.122Z,2.22
2022-08-04T00:31:57.783Z,2.03
2022-08-04T00:34:29.682Z,1.80
2022-08-04T00:36:58.322Z,1.92
2022-08-04T00:39:26.681Z,2.08
2022-08-04T00:42:11.426Z,2.22
2022-08-04T00:46:09.482Z,2.17
2022-08-04T00:49:07.602Z,2.40
2022-08-04T00:52:31.349Z,2.20
2022-08-04T00:55:12.351Z,2.10
2022-08-04T00:58:11.307Z,1.98
2022-08-04T01:01:11.313Z,2.10
2022-08-04T01:04:00.789Z,2.05
2022-08-04T01:06:56.084Z,2.40
2022-08-04T01:09:50.187Z,2.20
2022-08-04T01:12:56.560Z,1.98
2022-08-04T01:16:00.832Z,2.20
2022-08-04T01:18:54.515Z,2.00
2022-08-04T01:21:30.515Z,2.20
2022-08-04T01:24:14.853Z,2.17
2022-08-04T01:27:27.392Z,2.05
2022-08-04T01:30:01.227Z,2.10
2022-08-04T01:32:44.967Z,2.55
2022-08-04T01:35:47.312Z,2.53
2022-08-04T01:38:25.740Z,2.28
2022-08-04T01:40:56.580Z,1.60
2022-08-04T01:43:25.040Z,2.00
2022-08-04T01:45:59.726Z,2.17
2022-08-04T01:48:29.181Z,1.92
2022-08-04T01:51:04.133Z,2.10
2022-08-04T01:53:35.765Z,1.90
2022-08-04T01:56:04.820Z,1.80
2022-08-04T01:58:34.200Z,2.00
2022-08-04T02:01:08.625Z,1.85
2022-08-04T02:04:18.125Z,1.90
2022-08-04T02:07:02.443Z,2.20
2022-08-04T02:10:11.104Z,2.10
2022-08-04T02:12:56.028Z,1.92
2022-08-04T02:16:04.958Z,2.00
2022-08-04T02:19:14.543Z,1.80
2022-08-04T02:21:44.875Z,2.08
2022-08-04T02:24:18.553Z,2.72
2022-08-04T02:26:52.928Z,1.95
2022-08-04T02:29:39.523Z,1.75
2022-08-04T02:32:15.245Z,2.10
2022-08-04T02:35:14.554Z,2.05
2022-08-04T02:37:49.350Z,2.20
2022-08-04T02:40:22.048Z,2.03
2022-08-04T02:42:52.048Z,2.40
2022-08-04T02:45:21.753Z,1.95
2022-08-04T02:48:29.457Z,2.10
2022-08-04T02:50:44.344Z,1.95
2022-08-04T02:53:15.423Z,2.15
2022-08-04T02:55:50.973Z,1.90
2022-08-04T02:58:25.903Z,1.88
2022-08-04T03:00:52.735Z,2.40
2022-08-04T03:03:34.904Z,2.05
2022-08-04T03:06:11.320Z,2.17
2022-08-04T03:09:23.298Z,2.05
2022-08-04T03:12:26.780Z,2.20
2022-08-04T03:15:23.618Z,2.17
2022-08-04T03:18:14.125Z,2.15
2022-08-04T03:21:06.071Z,2.30
2022-08-04T03:24:19.614Z,2.35
2022-08-04T03:27:31.060Z,2.00
2022-08-04T03:30:04.665Z,2.45
2022-08-04T03:32:37.287Z,2.05
2022-08-04T03:35:28.661Z,2.00
2022-08-04T03:38:20.044Z,2.30
2022-08-04T03:41:51.517Z,2.15
2022-08-04T03:44:32.752Z,2.25
2022-08-04T03:47:42.431Z,2.08
2022-08-04T03:50:45.634Z,1.88
2022-08-04T03:53:30.434Z,1.75
2022-08-04T03:56:21.687Z,2.08
2022-08-04T03:59:22.172Z,1.88
2022-08-04T04:02:38.359Z,2.25
2022-08-04T04:05:59.983Z,2.20
2022-08-04T04:09:13.542Z,2.17
2022-08-04T04:11:56.665Z,2.08
2022-08-04T04:15:14.518Z,2.70
2022-08-04T04:18:20.063Z,2.63
2022-08-04T04:21:22.005Z,2.20
2022-08-04T04:24:37.631Z,2.42
2022-08-04T04:27:18.071Z,2.20
2022-08-04T04:30:07.309Z,2.10
2022-08-04T04:33:08.968Z,2.35
2022-08-04T04:36:10.397Z,2.47
2022-08-04T04:38:52.401Z,2.42
2022-08-04T04:42:19.336Z,2.50
2022-08-04T04:45:05.648Z,2.47
2022-08-04T04:48:14.944Z,2.85
2022-08-04T04:51:06.917Z,2.53
2022-08-04T04:53:38.655Z,2.55
2022-08-04T04:57:10.703Z,2.90
2022-08-04T05:00:01.369Z,2.10
2022-08-04T05:03:09.010Z,2.38
2022-08-04T05:05:58.124Z,2.30
2022-08-04T05:08:45.204Z,2.40
2022-08-04T05:11:50.259Z,2.20
2022-08-04T05:14:41.418Z,2.28
2022-08-04T05:17:45.177Z,2.28
2022-08-04T05:20:20.231Z,2.33
2022-08-04T05:23:15.412Z,2.25
2022-08-04T05:25:59.366Z,2.28
2022-08-04T05:28:45.214Z,2.42
2022-08-04T05:31:29.239Z,2.40
2022-08-04T05:34:08.982Z,2.65
2022-08-04T05:36:46.512Z,2.20
2022-08-04T05:39:22.040Z,3.15
2022-08-04T05:41:55.762Z,3.40
2022-08-04T05:44:27.900Z,2.60
2022-08-04T05:46:59.843Z,3.00
2022-08-04T05:49:29.133Z,2.50
2022-08-04T05:52:01.233Z,3.10
2022-08-04T05:54:32.075Z,2.38
2022-08-04T05:57:00.286Z,2.78
2022-08-04T05:59:29.250Z,2.33
2022-08-04T06:02:00.753Z,2.05
2022-08-04T06:04:41.869Z,2.00
2022-08-04T06:07:12.768Z,2.40
2022-08-04T06:09:41.132Z,2.10
2022-08-04T06:12:21.780Z,1.90
2022-08-04T06:14:59.572Z,1.88
2022-08-04T06:19:56.438Z,1.80
2022-08-04T06:20:23.842Z,2.05
2022-08-04T06:22:57.448Z,1.77
2022-08-04T06:25:31.055Z,2.58
2022-08-04T06:28:01.467Z,2.13
2022-08-04T06:30:32.406Z,1.90
2022-08-04T06:33:04.990Z,2.22
2022-08-04T06:35:33.756Z,2.10
2022-08-04T06:38:02.854Z,2.67
2022-08-04T06:40:33.637Z,2.00
2022-08-04T06:43:04.287Z,1.92
2022-08-04T06:45:34.883Z,2.35
2022-08-04T06:48:04.867Z,2.67
2022-08-04T06:51:25.895Z,2.17
2022-08-04T06:53:22.688Z,2.28
2022-08-04T06:55:52.250Z,1.92
2022-08-04T06:58:22.223Z,2.30
2022-08-04T07:00:50.861Z,1.60
2022-08-04T07:03:19.415Z,1.83
2022-08-04T07:05:51.427Z,1.80
2022-08-04T07:08:19.908Z,2.40
2022-08-04T07:10:47.559Z,1.80
2022-08-04T07:13:15.697Z,2.20
2022-08-04T07:15:45.838Z,1.80
2022-08-04T07:18:13.216Z,2.08
2022-08-04T07:20:45.506Z,1.90
2022-08-04T07:23:21.340Z,2.10
2022-08-04T07:25:59.818Z,2.20
2022-08-04T07:28:41.390Z,2.65
2022-08-04T07:31:31.763Z,1.90
2022-08-04T07:34:17.743Z,1.88
2022-08-04T07:36:55.698Z,2.03
2022-08-04T07:39:29.634Z,2.15
2022-08-04T07:42:01.552Z,2.00
2022-08-04T07:44:31.982Z,1.98
2022-08-04T07:47:00.614Z,2.40
2022-08-04T07:49:55.340Z,2.00
2022-08-04T07:52:16.357Z,1.92
2022-08-04T07:54:44.432Z,2.20
2022-08-04T07:57:19.541Z,2.00
2022-08-04T07:59:58.218Z,2.28
2022-08-04T08:02:26.084Z,1.90
2022-08-04T08:04:53.560Z,1.75
2022-08-04T08:07:21.243Z,1.73
2022-08-04T08:09:48.821Z,1.90
2022-08-04T08:12:35.710Z,1.70
2022-08-04T08:15:05.775Z,2.00
2022-08-04T08:17:58.813Z,1.80
2022-08-04T08:20:29.913Z,1.60
2022-08-04T08:22:58.876Z,1.83
2022-08-04T08:25:26.042Z,1.98
2022-08-04T08:27:56.023Z,1.65
2022-08-04T08:30:25.179Z,1.92
2022-08-04T08:33:03.170Z,1.85
2022-08-04T08:35:52.130Z,1.70
2022-08-04T08:38:39.392Z,1.60
2022-08-04T08:41:55.540Z,1.50
2022-08-04T08:44:46.909Z,1.45
2022-08-04T08:48:06.046Z,1.70
2022-08-04T08:51:04.211Z,1.45
2022-08-04T08:54:05.380Z,1.40
2022-08-04T08:56:50.219Z,1.38
2022-08-04T09:00:00.790Z,1.13
2022-08-04T09:03:10.312Z,1.40
2022-08-04T09:05:59.752Z,1.42
2022-08-04T09:09:11.110Z,1.38
2022-08-04T09:11:54.128Z,1.40
2022-08-04T09:14:32.354Z,1.30
2022-08-04T09:17:10.512Z,1.35
2022-08-04T09:19:52.634Z,1.38
2022-08-04T09:22:43.672Z,1.75
2022-08-04T09:25:26.100Z,1.63
2022-08-04T09:28:05.763Z,1.30
2022-08-04T09:30:52.310Z,1.25
2022-08-04T09:33:47.777Z,1.60
2022-08-04T09:36:55.400Z,1.35
2022-08-04T09:39:31.610Z,1.20
2022-08-04T09:42:29.345Z,1.25
2022-08-04T09:45:13.641Z,1.20
2022-08-04T09:48:05.201Z,1.23
2022-08-04T09:50:37.430Z,1.05
2022-08-04T09:53:54.987Z,1.05
2022-08-04T09:56:40.979Z,1.00
2022-08-04T09:59:30.335Z,1.30
2022-08-04T10:02:07.444Z,1.13
2022-08-04T10:04:39.417Z,1.27
2022-08-04T10:07:35.948Z,1.30
2022-08-04T10:10:38.643Z,1.05
2022-08-04T10:13:47.004Z,1.30
2022-08-04T10:16:36.420Z,1.10
2022-08-04T10:19:26.930Z,1.20
2022-08-04T10:22:28.199Z,1.10
2022-08-04T10:25:00.563Z,1.25
2022-08-04T10:27:56.376Z,1.20
2022-08-04T10:30:25.913Z,1.08
2022-08-04T10:33:39.452Z,1.17
2022-08-04T10:36:21.424Z,1.42
2022-08-04T10:39:12.273Z,1.13
2022-08-04T10:42:27.266Z,1.20
2022-08-04T10:45:16.495Z,1.20
2022-08-04T10:48:06.977Z,1.05
2022-08-04T10:50:46.302Z,1.08
2022-08-04T10:53:20.802Z,1.30
2022-08-04T10:56:07.324Z,1.20
2022-08-04T10:58:49.498Z,1.05
2022-08-04T11:02:02.991Z,0.90
2022-08-04T11:04:45.601Z,0.90
2022-08-04T11:07:15.230Z,1.00
2022-08-04T11:09:44.910Z,1.27
2022-08-04T11:12:26.179Z,0.80
2022-08-04T11:15:09.108Z,1.20
2022-08-04T11:17:41.696Z,1.17
2022-08-04T11:20:36.302Z,1.48
2022-08-04T11:23:14.617Z,1.20
2022-08-04T11:25:56.998Z,1.13
2022-08-04T11:28:42.470Z,1.20
2022-08-04T11:31:25.541Z,1.10
2022-08-04T11:34:21.867Z,1.52
2022-08-04T11:37:14.525Z,1.02
2022-08-04T11:40:07.021Z,1.20
2022-08-04T11:42:43.662Z,1.05
2022-08-04T11:45:34.000Z,1.10
2022-08-04T11:48:19.541Z,1.17
2022-08-04T11:50:54.980Z,1.55
2022-08-04T11:53:36.235Z,1.30
2022-08-04T11:56:11.180Z,1.85
2022-08-04T11:58:38.545Z,1.00
2022-08-04T12:01:35.640Z,2.60
2022-08-04T12:04:18.948Z,1.42
2022-08-04T12:07:40.605Z,0.98
2022-08-04T12:10:41.221Z,1.33
2022-08-04T12:13:31.655Z,1.10
2022-08-04T12:16:16.897Z,1.40
2022-08-04T12:19:00.944Z,1.30
2022-08-04T12:21:55.981Z,1.58
2022-08-04T12:24:34.832Z,1.50
2022-08-04T12:27:17.217Z,1.27
2022-08-04T12:31:00.060Z,1.35
2022-08-04T12:32:48.294Z,1.42
2022-08-04T12:35:33.824Z,1.20
2022-08-04T12:38:06.386Z,1.40
2022-08-04T12:40:39.865Z,1.52
2022-08-04T12:43:20.097Z,1.58
2022-08-04T12:45:53.954Z,1.42
2022-08-04T12:48:23.963Z,1.45
2022-08-04T12:50:54.198Z,1.38
2022-08-04T12:53:31.848Z,1.20
2022-08-04T12:56:02.380Z,1.33
2022-08-04T12:58:43.293Z,1.27
2022-08-04T13:02:07.304Z,1.30
2022-08-04T13:04:28.828Z,1.10
2022-08-04T13:07:24.697Z,1.27
2022-08-04T13:09:53.420Z,1.00
2022-08-04T13:12:32.314Z,1.17
2022-08-04T13:15:17.753Z,1.20
2022-08-04T13:18:14.888Z,1.00
2022-08-04T13:20:44.786Z,1.20
2022-08-04T13:26:43.580Z,1.00
2022-08-04T13:28:54.844Z,1.08
2022-08-04T13:30:25.069Z,0.90
2022-08-04T13:31:35.934Z,0.90
2022-08-04T13:34:18.139Z,0.93
2022-08-04T13:36:47.991Z,1.20
2022-08-04T13:39:21.798Z,1.05
2022-08-04T13:41:58.802Z,0.95
2022-08-04T13:44:32.896Z,0.90
2022-08-04T13:47:11.281Z,1.05
2022-08-04T13:49:54.580Z,1.15
2022-08-04T13:52:28.675Z,1.17
2022-08-04T13:54:55.643Z,1.00
2022-08-04T13:57:31.064Z,0.80
2022-08-04T14:00:07.944Z,0.88
2022-08-04T14:02:42.561Z,0.90
2022-08-04T14:05:28.089Z,1.00
2022-08-04T14:08:15.655Z,0.90
2022-08-04T14:10:42.680Z,1.00
2022-08-04T14:13:09.772Z,1.00
2022-08-04T14:16:02.195Z,1.00
2022-08-04T14:18:32.838Z,1.00
2022-08-04T14:21:12.329Z,1.00
2022-08-04T14:23:57.130Z,0.80
2022-08-04T14:26:33.305Z,0.88
2022-08-04T14:29:28.577Z,0.75
2022-08-04T14:32:12.466Z,0.90
2022-08-04T14:34:45.926Z,1.10
2022-08-04T14:37:20.715Z,0.93
2022-08-04T14:40:07.935Z,1.17
2022-08-04T14:42:55.211Z,1.55
2022-08-04T14:45:39.516Z,0.90
2022-08-04T14:48:23.041Z,1.20
2022-08-04T14:50:51.853Z,1.17
2022-08-04T14:53:22.353Z,0.95
2022-08-04T14:55:53.380Z,0.90
2022-08-04T14:58:35.157Z,0.90
2022-08-04T15:01:10.699Z,1.10
2022-08-04T15:03:50.720Z,1.13
2022-08-04T15:06:28.772Z,1.17
2022-08-04T15:08:59.756Z,0.98
2022-08-04T15:11:28.222Z,0.80
2022-08-04T15:13:57.825Z,0.90
2022-08-04T15:16:28.591Z,0.88
2022-08-04T15:18:57.522Z,0.90
2022-08-04T15:21:29.684Z,1.02
2022-08-04T15:23:59.773Z,1.20
2022-08-04T15:26:51.805Z,0.90
2022-08-04T15:30:00.584Z,0.85
2022-08-04T15:32:25.271Z,1.10
2022-08-04T15:34:54.857Z,0.90
2022-08-04T15:37:45.070Z,0.85
2022-08-04T15:40:16.500Z,0.90
2022-08-04T15:42:58.678Z,0.95
2022-08-04T15:46:33.004Z,1.20
2022-08-04T15:48:13.155Z,0.77
2022-08-04T15:50:58.148Z,1.10
2022-08-04T15:53:28.693Z,0.85
2022-08-04T15:56:26.442Z,1.52
2022-08-04T15:58:55.341Z,1.05
2022-08-04T16:01:23.366Z,1.30
2022-08-04T16:03:59.863Z,1.17
2022-08-04T16:06:29.709Z,1.05
2022-08-04T16:09:05.254Z,0.90
2022-08-04T16:11:39.980Z,1.02
2022-08-04T16:14:10.484Z,1.02
2022-08-04T16:16:37.229Z,0.90
2022-08-04T16:19:43.564Z,0.90
2022-08-04T16:22:30.994Z,1.10
2022-08-04T16:24:57.973Z,1.10
2022-08-04T16:27:38.422Z,0.90
2022-08-04T16:30:13.582Z,1.00
2022-08-04T16:32:44.819Z,1.08
2022-08-04T16:35:28.368Z,0.98
2022-08-04T16:38:13.957Z,1.00
2022-08-04T16:40:45.532Z,0.90
2022-08-04T16:43:20.945Z,0.88
2022-08-04T16:46:00.137Z,1.00
2022-08-04T16:48:32.467Z,1.27
2022-08-04T16:51:15.135Z,1.20
2022-08-04T16:53:53.703Z,1.33
2022-08-04T16:56:35.387Z,1.00
2022-08-04T16:59:11.436Z,0.90
2022-08-04T17:01:47.727Z,1.30
2022-08-04T17:04:15.646Z,1.02
2022-08-04T17:06:46.374Z,1.00
2022-08-04T17:09:19.581Z,0.93
2022-08-04T17:11:50.018Z,1.17
2022-08-04T17:14:27.223Z,1.48
2022-08-04T17:16:58.072Z,1.25
2022-08-04T17:19:26.435Z,1.00
2022-08-04T17:22:10.419Z,1.10
2022-08-04T17:24:40.824Z,1.10
2022-08-04T17:28:19.739Z,0.90
2022-08-04T17:29:56.524Z,0.95
2022-08-04T17:32:24.169Z,1.08
2022-08-04T17:34:55.338Z,1.00
2022-08-04T17:37:39.415Z,1.10
2022-08-04T17:40:22.480Z,1.10
2022-08-04T17:44:04.223Z,1.00
2022-08-04T17:46:33.972Z,1.10
2022-08-04T17:49:19.029Z,1.35
2022-08-04T17:52:05.548Z,1.27
2022-08-04T17:57:28.740Z,1.15
2022-08-04T17:59:59.946Z,1.05
2022-08-04T18:02:34.964Z,1.23
2022-08-04T18:05:12.352Z,1.20
2022-08-04T18:08:34.553Z,1.10
2022-08-04T18:10:55.038Z,1.20
2022-08-04T18:13:26.388Z,1.00
2022-08-04T18:19:11.388Z,1.10
2022-08-04T18:21:46.782Z,1.10
2022-08-04T18:24:34.482Z,1.13
2022-08-04T18:27:20.307Z,1.30
2022-08-04T18:30:14.672Z,1.20
2022-08-04T18:32:35.569Z,1.40
2022-08-04T18:35:05.507Z,1.33
2022-08-04T18:38:06.325Z,1.00
2022-08-04T18:40:26.316Z,1.00
2022-08-04T18:42:56.643Z,0.98
2022-08-04T18:45:24.106Z,1.17
2022-08-04T18:48:01.246Z,1.05
2022-08-04T18:51:00.872Z,1.45
2022-08-04T18:53:17.577Z,1.25
2022-08-04T18:55:57.142Z,1.10
2022-08-04T18:58:27.276Z,1.05
2022-08-04T19:00:55.821Z,1.10
2022-08-04T19:03:23.590Z,1.30
2022-08-04T19:05:53.421Z,1.55
2022-08-04T19:08:33.785Z,1.45
2022-08-04T19:11:16.650Z,1.45
2022-08-04T19:13:58.323Z,1.30
2022-08-04T19:16:30.595Z,1.40
2022-08-04T19:19:00.625Z,1.40
2022-08-04T19:22:00.768Z,1.35
2022-08-04T19:24:33.486Z,1.42
2022-08-04T19:27:08.350Z,1.20
2022-08-04T19:29:40.684Z,1.42
2022-08-04T19:32:14.422Z,1.40
2022-08-04T19:34:46.119Z,1.40
2022-08-04T19:37:57.658Z,1.38
2022-08-04T19:40:10.268Z,1.40
2022-08-04T19:42:42.464Z,1.30
2022-08-04T19:45:15.754Z,1.25
2022-08-04T19:48:21.665Z,1.30
2022-08-04T19:50:34.404Z,1.65
2022-08-04T19:53:01.319Z,1.38
2022-08-04T19:55:36.884Z,1.60
2022-08-04T19:58:08.497Z,1.80
2022-08-04T20:00:38.519Z,1.58
2022-08-04T20:03:11.534Z,1.60
2022-08-04T20:05:55.376Z,1.55
2022-08-04T20:08:28.996Z,1.42
2022-08-04T20:10:57.792Z,1.40
2022-08-04T20:13:30.672Z,1.60
2022-08-04T20:16:29.480Z,1.48
2022-08-04T20:19:03.194Z,1.60
2022-08-04T20:21:53.486Z,1.60
2022-08-04T20:24:38.265Z,1.52
2022-08-04T20:27:15.578Z,1.40
2022-08-04T20:29:51.089Z,1.30
2022-08-04T20:32:24.538Z,1.70
2022-08-04T20:34:54.144Z,1.42
2022-08-04T20:37:23.280Z,1.30
2022-08-04T20:39:58.884Z,1.58
2022-08-04T20:42:33.702Z,1.67
2022-08-04T20:45:01.393Z,1.30
2022-08-04T20:47:31.258Z,1.35
2022-08-04T20:50:10.831Z,1.48
2022-08-04T20:52:39.368Z,1.70
2022-08-04T20:55:08.290Z,1.33
2022-08-04T20:57:47.922Z,1.88
2022-08-04T21:00:16.400Z,1.50
2022-08-04T21:02:43.465Z,1.58
2022-08-04T21:05:11.651Z,1.67
2022-08-04T21:07:43.747Z,2.10
2022-08-04T21:10:16.080Z,1.65
2022-08-04T21:12:49.599Z,1.55
2022-08-04T21:15:24.759Z,1.60
2022-08-04T21:17:58.898Z,1.88
2022-08-04T21:20:32.382Z,1.67
2022-08-04T21:23:02.142Z,1.75
2022-08-04T21:25:30.526Z,1.50
2022-08-04T21:27:59.034Z,1.70
2022-08-04T21:30:32.849Z,1.83
2022-08-04T21:33:18.704Z,1.73
2022-08-04T21:35:46.837Z,1.92
2022-08-04T21:38:17.685Z,1.88
2022-08-04T21:40:56.800Z,1.90
2022-08-04T21:43:27.266Z,2.00
2022-08-04T21:45:56.937Z,2.03
2022-08-04T21:48:31.811Z,1.65
2022-08-04T21:51:59.954Z,2.15
2022-08-04T21:54:17.109Z,1.85
2022-08-04T21:56:50.910Z,1.83
2022-08-04T21:59:24.210Z,1.70
2022-08-04T22:02:01.015Z,1.88
2022-08-04T22:04:29.667Z,1.92
2022-08-04T22:06:57.037Z,1.90
2022-08-04T22:09:23.842Z,1.77
2022-08-04T22:11:51.965Z,2.28
2022-08-04T22:14:27.573Z,2.20
2022-08-04T22:16:57.634Z,1.55
2022-08-04T22:19:39.646Z,1.83
2022-08-04T22:22:13.430Z,1.67
2022-08-04T22:24:40.973Z,1.58
2022-08-04T22:27:37.486Z,1.45
2022-08-04T22:30:17.371Z,1.65
2022-08-04T22:32:48.721Z,1.30
2022-08-04T22:35:36.419Z,1.95
2022-08-04T22:38:21.263Z,1.58
2022-08-04T22:41:07.396Z,1.77
2022-08-04T22:43:37.824Z,1.67
2022-08-04T22:46:25.299Z,1.63
2022-08-04T22:48:53.347Z,1.50
2022-08-04T22:51:22.387Z,1.50
2022-08-04T22:53:50.718Z,1.50
2022-08-04T22:56:37.185Z,1.77
2022-08-04T22:59:11.198Z,1.40
2022-08-04T23:01:57.772Z,1.50
2022-08-04T23:04:31.697Z,1.33
2022-08-04T23:07:00.436Z,1.60
2022-08-04T23:09:50.711Z,1.48
2022-08-04T23:12:24.359Z,1.98
2022-08-04T23:14:55.870Z,1.77
2022-08-04T23:17:24.229Z,1.55
2022-08-04T23:19:57.634Z,1.60
2022-08-04T23:22:41.034Z,1.55
2022-08-04T23:25:16.077Z,1.42
2022-08-04T23:27:51.412Z,1.70
2022-08-04T23:30:24.849Z,1.58
2022-08-04T23:32:57.645Z,1.50
2022-08-04T23:35:24.520Z,1.40
2022-08-04T23:37:56.858Z,1.60
2022-08-04T23:40:33.336Z,1.65
2022-08-04T23:43:17.213Z,2.10
2022-08-04T23:46:07.867Z,1.50
2022-08-04T23:48:39.922Z,1.60
2022-08-04T23:51:14.569Z,1.60
2022-08-04T23:54:03.266Z,1.70
2022-08-04T23:56:33.240Z,1.70
2022-08-04T23:59:03.830Z,1.52
